Time;durP1;ratioP1;P1;durP2;ratioP2;P2;SDS_P1;SDS_P2;PMS_P1;PMS_P2;Temp;Humidity;BMP_temperature;BMP_pressure;BME280_temperature;BME280_humidity;BME280_pressure;Samples;Min_cycle;Max_cycle;Signal;HPM_P1;HPM_P2
2021/04/26 00:01:30;;;;;;;7.72;6.03;;;;;;;6.32;72.86;96541.31;5010722;28;20057;-65
2021/04/26 00:04:01;;;;;;;9.05;5.70;;;;;;;6.10;74.17;96549.16;5012195;28;20510;-64
2021/04/26 00:06:28;;;;;;;7.80;5.95;;;;;;;6.23;73.53;96539.44;5026384;28;22252;-64
2021/04/26 00:08:56;;;;;;;8.77;5.88;;;;;;;6.22;74.12;96536.91;5026283;28;20033;-65
2021/04/26 00:11:24;;;;;;;9.27;5.80;;;;;;;6.19;74.68;96532.72;5027599;28;20064;-65
2021/04/26 00:13:51;;;;;;;8.15;5.45;;;;;;;6.10;75.50;96538.69;5025213;28;20430;-64
2021/04/26 00:16:20;;;;;;;7.18;5.82;;;;;;;6.05;75.89;96532.94;5028669;28;20695;-64
2021/04/26 00:18:47;;;;;;;10.40;5.97;;;;;;;6.00;77.26;96519.38;5028138;28;20061;-65
2021/04/26 00:21:16;;;;;;;10.13;5.70;;;;;;;5.85;78.51;96521.28;5026746;28;20061;-66
2021/04/26 00:23:43;;;;;;;6.38;5.20;;;;;;;5.90;79.45;96506.09;5008604;28;20042;-64
2021/04/26 00:26:11;;;;;;;8.75;6.38;;;;;;;5.86;79.53;96508.09;5025628;28;20073;-65
2021/04/26 00:28:39;;;;;;;8.55;5.95;;;;;;;5.86;79.50;96510.72;5011152;28;20068;-66
2021/04/26 00:31:06;;;;;;;9.50;6.60;;;;;;;5.87;80.24;96507.16;5008197;28;20069;-64
2021/04/26 00:33:34;;;;;;;7.40;5.93;;;;;;;5.83;80.34;96505.72;5012531;28;20076;-64
2021/04/26 00:36:02;;;;;;;9.68;6.45;;;;;;;5.77;80.79;96507.94;5021019;28;20456;-64
2021/04/26 00:38:30;;;;;;;9.45;6.28;;;;;;;5.79;81.48;96501.66;5010009;28;20193;-66
2021/04/26 00:40:58;;;;;;;11.93;6.65;;;;;;;5.79;81.11;96506.06;5023496;28;20080;-63
2021/04/26 00:43:26;;;;;;;7.72;6.32;;;;;;;5.75;81.49;96502.84;5026570;28;20045;-65
2021/04/26 00:45:54;;;;;;;10.07;5.95;;;;;;;5.77;82.01;96500.09;5028007;28;20068;-66
2021/04/26 00:48:22;;;;;;;10.18;6.45;;;;;;;5.74;82.68;96492.47;5008667;28;20462;-62
2021/04/26 00:50:50;;;;;;;8.45;6.53;;;;;;;5.58;83.97;96487.56;5008073;28;20065;-66
2021/04/26 00:53:18;;;;;;;10.18;7.07;;;;;;;5.58;84.04;96488.41;5015838;28;20519;-65
2021/04/26 00:55:47;;;;;;;9.13;6.80;;;;;;;5.58;84.43;96485.78;5006701;28;20061;-64
2021/04/26 00:58:15;;;;;;;9.25;6.18;;;;;;;5.52;86.35;96480.16;5026121;28;20453;-66
2021/04/26 01:00:43;;;;;;;7.65;6.63;;;;;;;5.48;86.42;96475.16;5027221;28;20100;-64
2021/04/26 01:03:28;;;;;;;10.38;6.13;;;;;;;5.56;86.50;96471.13;5008518;28;20998;-67
2021/04/26 01:05:56;;;;;;;13.57;6.82;;;;;;;5.45;87.61;96470.16;5023155;28;20062;-64
2021/04/26 01:08:24;;;;;;;8.50;6.80;;;;;;;5.44;88.18;96468.50;5027391;28;20072;-64
2021/04/26 01:10:53;;;;;;;10.77;6.97;;;;;;;5.40;88.59;96456.59;5023753;28;20072;-63
2021/04/26 01:13:42;;;;;;;9.50;6.47;;;;;;;5.53;86.85;96448.66;5026448;28;20059;-63
2021/04/26 01:16:14;;;;;;;9.27;7.40;;;;;;;5.33;89.76;96450.13;5024422;28;20049;-64
2021/04/26 01:18:49;;;;;;;9.57;7.00;;;;;;;5.29;90.14;96445.22;5028339;28;20065;-64
2021/04/26 01:21:59;;;;;;;11.65;7.90;;;;;;;5.40;89.40;96450.50;5023448;28;20922;-66
2021/04/26 01:24:41;;;;;;;11.35;6.93;;;;;;;5.21;91.64;96438.78;5024347;28;20465;-62
2021/04/26 01:27:18;;;;;;;8.23;6.85;;;;;;;5.26;90.73;96442.84;5011963;28;20114;-64
2021/04/26 01:29:57;;;;;;;8.95;6.70;;;;;;;5.19;91.30;96435.44;5024904;28;20498;-65
2021/04/26 01:32:30;;;;;;;9.35;6.80;;;;;;;5.15;92.09;96420.09;5021469;28;20087;-64
2021/04/26 01:34:59;;;;;;;12.02;7.50;;;;;;;5.09;92.42;96420.53;5010696;28;20045;-63
2021/04/26 01:37:28;;;;;;;10.73;7.05;;;;;;;5.18;91.39;96420.72;5022098;28;20072;-65
2021/04/26 01:39:56;;;;;;;11.40;7.68;;;;;;;5.18;91.18;96423.31;5028245;28;20104;-64
2021/04/26 01:42:23;;;;;;;10.98;7.93;;;;;;;5.28;90.31;96420.88;5024150;28;21697;-65
2021/04/26 01:44:51;;;;;;;11.25;7.32;;;;;;;5.31;88.64;96425.06;5027587;28;20460;-67
2021/04/26 01:47:19;;;;;;;9.60;8.00;;;;;;;5.32;89.37;96426.72;5023629;28;20069;-66
2021/04/26 01:49:48;;;;;;;11.45;7.03;;;;;;;5.30;90.18;96433.81;5027001;28;20073;-67
2021/04/26 01:52:16;;;;;;;9.55;6.88;;;;;;;5.19;90.96;96426.78;5023185;28;20096;-66
2021/04/26 01:54:43;;;;;;;11.25;7.55;;;;;;;5.07;92.80;96425.06;5027766;28;20092;-65
2021/04/26 01:57:11;;;;;;;15.38;7.50;;;;;;;5.06;94.43;96426.00;5026421;28;20065;-65
2021/04/26 01:59:38;;;;;;;12.45;7.45;;;;;;;4.90;95.89;96421.88;5021979;28;20061;-64
2021/04/26 02:02:07;;;;;;;12.73;7.75;;;;;;;4.95;96.56;96424.16;5026155;28;20091;-65
2021/04/26 02:04:36;;;;;;;14.65;6.82;;;;;;;4.91;97.56;96417.50;5023675;28;20061;-64
2021/04/26 02:07:08;;;;;;;12.13;7.68;;;;;;;4.86;98.90;96404.78;5024176;28;20559;-66
2021/04/26 02:09:39;;;;;;;13.88;7.25;;;;;;;4.75;100.00;96408.16;5021200;28;20214;-65
2021/04/26 02:12:08;;;;;;;12.65;9.20;;;;;;;4.55;100.00;96411.34;5026098;28;20061;-65
2021/04/26 02:14:35;;;;;;;9.35;7.40;;;;;;;4.51;100.00;96402.06;5017942;28;20080;-64
2021/04/26 02:17:04;;;;;;;10.60;8.07;;;;;;;4.61;100.00;96404.84;5025775;28;20072;-65
2021/04/26 02:19:33;;;;;;;10.48;8.38;;;;;;;4.44;100.00;96395.59;5024098;28;20064;-64
2021/04/26 02:22:01;;;;;;;10.45;7.97;;;;;;;4.43;100.00;96394.75;5025080;28;20084;-67
2021/04/26 02:24:29;;;;;;;10.77;8.00;;;;;;;4.38;100.00;96383.81;5026449;28;20085;-65
2021/04/26 02:26:59;;;;;;;12.57;8.80;;;;;;;4.28;100.00;96382.81;5025189;28;20069;-64
2021/04/26 02:29:26;;;;;;;11.95;8.70;;;;;;;4.22;100.00;96378.00;5022607;28;20515;-64
2021/04/26 02:31:59;;;;;;;11.85;8.68;;;;;;;4.24;100.00;96386.56;5024463;28;20072;-65
2021/04/26 02:34:30;;;;;;;15.07;9.55;;;;;;;4.20;100.00;96377.28;5024012;28;20073;-65
2021/04/26 02:37:02;;;;;;;12.93;8.63;;;;;;;4.26;100.00;96380.28;5027044;28;20720;-65
2021/04/26 02:39:31;;;;;;;13.45;8.52;;;;;;;4.18;100.00;96382.59;5023569;28;20327;-66
2021/04/26 02:41:58;;;;;;;11.73;9.20;;;;;;;4.16;100.00;96384.47;5008452;28;20068;-64
2021/04/26 02:44:27;;;;;;;14.77;9.63;;;;;;;4.18;100.00;96400.88;5022192;28;20073;-67
2021/04/26 02:47:02;;;;;;;11.07;8.63;;;;;;;4.27;100.00;96399.41;5026391;28;20065;-63
2021/04/26 02:49:30;;;;;;;11.48;8.77;;;;;;;4.16;100.00;96402.75;5021150;28;20072;-64
2021/04/26 02:51:58;;;;;;;11.90;8.35;;;;;;;4.08;100.00;96399.84;5025334;28;20081;-64
2021/04/26 02:54:27;;;;;;;12.15;8.60;;;;;;;4.09;100.00;96404.13;5026991;28;20334;-65
2021/04/26 02:56:57;;;;;;;10.45;8.60;;;;;;;4.00;100.00;96399.56;5021358;28;20073;-64
2021/04/26 02:59:25;;;;;;;10.77;8.55;;;;;;;4.12;100.00;96401.28;5026450;28;20096;-65
2021/04/26 03:01:57;;;;;;;12.18;9.00;;;;;;;4.18;100.00;96402.66;5027017;28;20121;-64
2021/04/26 03:04:29;;;;;;;13.15;8.35;;;;;;;4.00;100.00;96395.16;5029607;28;20096;-65
2021/04/26 03:06:58;;;;;;;10.20;7.53;;;;;;;4.08;100.00;96396.41;5028236;28;20077;-65
2021/04/26 03:09:25;;;;;;;9.93;8.93;;;;;;;4.05;100.00;96394.84;5028440;28;21349;-66
2021/04/26 03:11:54;;;;;;;10.60;8.70;;;;;;;3.83;100.00;96394.66;5025052;28;20069;-64
2021/04/26 03:14:24;;;;;;;10.57;8.50;;;;;;;3.77;100.00;96386.28;5029586;28;20072;-66
2021/04/26 03:16:53;;;;;;;10.48;8.75;;;;;;;3.68;100.00;96381.72;5027062;28;20049;-67
2021/04/26 03:19:21;;;;;;;13.07;8.52;;;;;;;3.61;100.00;96379.63;5026379;28;20065;-64
2021/04/26 03:21:49;;;;;;;13.07;8.73;;;;;;;3.49;100.00;96382.13;5027922;28;20103;-65
2021/04/26 03:24:18;;;;;;;13.93;8.77;;;;;;;3.49;100.00;96369.09;5029244;28;20065;-64
2021/04/26 03:26:47;;;;;;;12.40;8.77;;;;;;;3.39;100.00;96382.84;5024632;28;20072;-63
2021/04/26 03:29:17;;;;;;;11.75;8.88;;;;;;;3.32;100.00;96379.81;5028142;28;20058;-64
2021/04/26 03:31:46;;;;;;;16.40;8.88;;;;;;;3.13;100.00;96371.53;5026111;28;20057;-66
2021/04/26 03:34:14;;;;;;;10.48;9.18;;;;;;;3.22;100.00;96376.97;5027158;28;20100;-65
2021/04/26 03:36:42;;;;;;;14.38;9.95;;;;;;;3.20;100.00;96376.25;5029559;28;20084;-64
2021/04/26 03:39:10;;;;;;;11.48;9.55;;;;;;;3.17;100.00;96373.84;5025893;28;20064;-65
2021/04/26 03:41:38;;;;;;;13.50;9.57;;;;;;;3.26;100.00;96378.44;5026253;28;20069;-64
2021/04/26 03:44:11;;;;;;;13.48;9.57;;;;;;;3.22;100.00;96376.13;5028602;28;20068;-65
2021/04/26 03:46:47;;;;;;;16.75;9.27;;;;;;;3.29;100.00;96362.59;5023685;28;20091;-64
2021/04/26 03:49:14;;;;;;;11.77;8.93;;;;;;;3.32;100.00;96361.56;5025012;28;20065;-64
2021/04/26 03:51:43;;;;;;;15.98;8.88;;;;;;;3.31;100.00;96362.50;5031254;28;20456;-66
2021/04/26 03:54:10;;;;;;;12.80;8.68;;;;;;;3.42;100.00;96354.81;5026226;28;20098;-66
2021/04/26 03:56:38;;;;;;;11.10;8.27;;;;;;;3.40;100.00;96354.06;5027197;28;20061;-65
2021/04/26 03:59:05;;;;;;;11.05;9.30;;;;;;;3.35;100.00;96348.34;5026088;28;20061;-65
2021/04/26 04:01:33;;;;;;;10.55;7.85;;;;;;;3.45;100.00;96349.38;5028943;22;20081;-55
2021/04/26 04:04:01;;;;;;;14.45;9.20;;;;;;;3.53;100.00;96357.50;4986296;28;20084;-54
2021/04/26 04:06:29;;;;;;;13.68;9.10;;;;;;;3.55;100.00;96347.81;4991078;28;20074;-52
2021/04/26 04:08:57;;;;;;;12.18;8.73;;;;;;;3.56;100.00;96348.66;4986396;28;20470;-51
2021/04/26 04:11:26;;;;;;;11.02;8.65;;;;;;;3.55;100.00;96347.81;4989536;28;20078;-51
2021/04/26 04:13:54;;;;;;;11.65;9.18;;;;;;;3.54;100.00;96351.38;4987023;28;20062;-51
2021/04/26 04:16:21;;;;;;;14.30;9.02;;;;;;;3.61;100.00;96343.94;4989522;28;20084;-54
2021/04/26 04:18:49;;;;;;;15.50;8.98;;;;;;;3.71;100.00;96331.13;4987883;28;20102;-52
2021/04/26 04:21:18;;;;;;;10.88;9.07;;;;;;;3.70;100.00;96329.47;4987650;28;20081;-51
2021/04/26 04:23:45;;;;;;;12.48;7.90;;;;;;;3.77;100.00;96321.09;4985316;28;20073;-51
2021/04/26 04:26:13;;;;;;;11.55;7.95;;;;;;;3.88;100.00;96322.97;4988755;28;20121;-56
2021/04/26 04:28:41;;;;;;;13.38;9.40;;;;;;;3.87;100.00;96318.69;4985373;28;20520;-53
2021/04/26 04:31:09;;;;;;;12.65;6.68;;;;;;;4.03;100.00;96326.28;4987435;28;20077;-53
2021/04/26 04:33:36;;;;;;;12.40;8.25;;;;;;;4.03;100.00;96319.28;4986908;28;20086;-53
2021/04/26 04:36:05;;;;;;;14.15;8.10;;;;;;;4.18;100.00;96312.16;4987516;28;20077;-54
2021/04/26 04:38:33;;;;;;;12.57;8.80;;;;;;;4.22;100.00;96307.53;4987822;28;20425;-54
2021/04/26 04:41:01;;;;;;;13.00;8.93;;;;;;;4.07;100.00;96306.03;4986854;28;20077;-55
2021/04/26 04:43:28;;;;;;;16.10;8.07;;;;;;;4.11;100.00;96302.25;4987085;28;20073;-54
2021/04/26 04:45:56;;;;;;;13.93;8.65;;;;;;;4.19;100.00;96311.19;4986428;28;20095;-54
2021/04/26 04:48:23;;;;;;;13.80;8.25;;;;;;;4.25;100.00;96304.72;4985135;28;20077;-52
2021/04/26 04:50:51;;;;;;;13.43;8.00;;;;;;;4.29;100.00;96301.75;4983694;28;20073;-51
2021/04/26 04:53:18;;;;;;;13.77;8.88;;;;;;;5.37;97.45;96305.16;4986348;28;20074;-55
2021/04/26 04:55:47;;;;;;;11.00;7.68;;;;;;;6.49;82.88;96292.97;4985875;28;20077;-54
2021/04/26 04:58:15;;;;;;;10.93;8.13;;;;;;;6.96;76.89;96298.78;4986177;28;20086;-55
2021/04/26 05:00:42;;;;;;;8.90;6.97;;;;;;;7.52;71.53;96299.28;4986977;28;20528;-54
2021/04/26 05:03:28;;;;;;;12.43;7.88;;;;;;;6.79;75.90;96297.53;4987876;28;20498;-55
2021/04/26 05:05:56;;;;;;;12.73;7.05;;;;;;;7.80;67.29;96297.75;4984712;28;20077;-58
2021/04/26 05:08:24;;;;;;;10.43;7.30;;;;;;;7.74;68.48;96302.69;4987065;28;20074;-55
2021/04/26 05:10:52;;;;;;;11.88;7.35;;;;;;;8.09;65.75;96291.81;4985369;28;20065;-58
2021/04/26 05:13:22;;;;;;;9.55;6.70;;;;;;;8.62;61.76;96296.78;4987408;28;20065;-53
2021/04/26 05:15:49;;;;;;;7.95;5.93;;;;;;;8.89;60.84;96295.28;4987332;28;20065;-57
2021/04/26 05:18:16;;;;;;;13.15;7.13;;;;;;;8.86;60.14;96303.44;4987840;28;20100;-56
2021/04/26 05:20:44;;;;;;;9.73;6.55;;;;;;;9.12;59.12;96299.31;4982795;28;20066;-57
2021/04/26 05:23:12;;;;;;;13.68;7.18;;;;;;;9.11;59.23;96302.06;4986464;28;20077;-56
2021/04/26 05:25:40;;;;;;;10.88;7.38;;;;;;;8.83;60.90;96307.16;4985475;28;20068;-56
2021/04/26 05:28:08;;;;;;;11.32;6.82;;;;;;;9.13;58.50;96308.84;4986858;28;20101;-53
2021/04/26 05:30:37;;;;;;;12.73;6.82;;;;;;;9.31;56.25;96318.66;4980138;28;20085;-56
2021/04/26 05:33:04;;;;;;;10.98;7.20;;;;;;;8.35;60.62;96328.09;4987201;28;20085;-57
2021/04/26 05:35:32;;;;;;;12.23;7.35;;;;;;;7.41;70.55;96335.25;4985401;28;20066;-56
2021/04/26 05:38:08;;;;;;;11.65;7.63;;;;;;;6.94;74.38;96335.56;4983861;28;20081;-53
2021/04/26 05:40:36;;;;;;;11.50;7.78;;;;;;;6.45;79.00;96334.31;4986600;28;20460;-55
2021/04/26 05:43:03;;;;;;;12.35;7.20;;;;;;;6.65;79.88;96324.84;4983663;28;20571;-52
2021/04/26 05:45:32;;;;;;;13.77;8.15;;;;;;;6.52;80.40;96326.78;4987930;28;20078;-52
2021/04/26 05:47:59;;;;;;;18.40;7.50;;;;;;;6.37;81.55;96319.22;4985197;28;20245;-58
2021/04/26 05:50:32;;;;;;;11.57;7.10;;;;;;;6.47;81.70;96329.78;4984389;28;20066;-57
2021/04/26 05:52:59;;;;;;;11.88;7.55;;;;;;;6.87;79.72;96319.53;4985008;28;20066;-49
2021/04/26 05:55:27;;;;;;;10.43;6.88;;;;;;;6.76;81.36;96326.59;4986246;28;20520;-51
2021/04/26 05:57:54;;;;;;;9.80;7.32;;;;;;;6.78;79.56;96319.44;4986704;28;20536;-57
2021/04/26 06:00:22;;;;;;;12.60;7.30;;;;;;;7.10;79.09;96314.19;4985416;28;20445;-50
2021/04/26 06:02:51;;;;;;;11.40;7.20;;;;;;;7.44;76.17;96316.63;4983784;28;20077;-52
2021/04/26 06:05:18;;;;;;;12.98;7.40;;;;;;;7.06;76.33;96321.47;4986389;28;20078;-51
2021/04/26 06:07:46;;;;;;;8.63;6.63;;;;;;;7.11;75.08;96323.72;4984301;28;20521;-52
2021/04/26 06:10:13;;;;;;;10.18;6.53;;;;;;;7.48;74.83;96329.34;4985188;28;20093;-51
2021/04/26 06:12:41;;;;;;;11.60;6.75;;;;;;;7.32;75.56;96321.94;4985369;28;20070;-49
2021/04/26 06:15:09;;;;;;;11.65;7.30;;;;;;;7.46;71.61;96318.16;4986558;28;20157;-52
2021/04/26 06:17:36;;;;;;;8.35;6.45;;;;;;;7.81;71.43;96309.94;4983251;28;20069;-54
2021/04/26 06:20:06;;;;;;;13.77;7.15;;;;;;;7.67;67.07;96312.88;4984521;28;20081;-49
2021/04/26 06:22:34;;;;;;;12.20;6.87;;;;;;;7.49;68.32;96303.94;4985915;28;20062;-53
2021/04/26 06:25:01;;;;;;;11.25;6.68;;;;;;;7.71;67.83;96303.81;4985742;28;20075;-55
2021/04/26 06:27:29;;;;;;;11.20;6.38;;;;;;;7.60;69.06;96317.84;4988735;28;20088;-56
2021/04/26 06:29:57;;;;;;;8.85;6.38;;;;;;;7.92;66.86;96309.00;4984671;28;20077;-50
2021/04/26 06:32:24;;;;;;;11.18;6.18;;;;;;;7.88;65.22;96310.25;4985353;28;20470;-51
2021/04/26 06:34:52;;;;;;;9.25;5.75;;;;;;;7.72;65.56;96300.22;4966741;28;20058;-54
2021/04/26 06:37:21;;;;;;;8.20;6.45;;;;;;;7.92;63.10;96316.06;4990789;28;20065;-56
2021/04/26 06:39:49;;;;;;;8.20;5.95;;;;;;;8.41;63.79;96314.44;4989270;28;20516;-56
2021/04/26 06:42:16;;;;;;;7.95;5.60;;;;;;;8.53;61.32;96310.72;4989687;28;20069;-56
2021/04/26 06:44:44;;;;;;;11.13;6.25;;;;;;;8.61;60.97;96323.22;4988443;28;20090;-56
2021/04/26 06:47:11;;;;;;;11.20;6.72;;;;;;;8.33;62.47;96318.56;4988993;28;20084;-54
2021/04/26 06:49:39;;;;;;;11.40;6.57;;;;;;;8.79;60.02;96322.38;4986932;28;20134;-53
2021/04/26 06:52:07;;;;;;;11.18;6.25;;;;;;;8.86;58.91;96324.47;4989686;28;20103;-56
2021/04/26 06:54:35;;;;;;;8.65;5.97;;;;;;;9.19;56.98;96329.34;4986139;28;20085;-49
2021/04/26 06:57:04;;;;;;;9.93;6.00;;;;;;;8.91;57.44;96324.88;4989870;28;20080;-56
2021/04/26 06:59:32;;;;;;;8.98;5.60;;;;;;;9.20;55.43;96319.63;4987428;28;20061;-51
2021/04/26 07:01:59;;;;;;;15.82;6.47;;;;;;;9.07;55.69;96326.97;4988806;28;20104;-55
2021/04/26 07:04:26;;;;;;;9.10;5.57;;;;;;;9.06;56.04;96315.63;4987391;28;20069;-53
2021/04/26 07:06:54;;;;;;;9.60;6.22;;;;;;;9.93;53.36;96312.00;4992043;28;20555;-57
2021/04/26 07:09:21;;;;;;;7.40;5.63;;;;;;;9.65;53.85;96311.94;4986446;28;20485;-52
2021/04/26 07:11:50;;;;;;;10.25;6.43;;;;;;;9.95;51.78;96307.44;4988534;28;20066;-49
2021/04/26 07:14:18;;;;;;;12.20;6.28;;;;;;;9.71;53.90;96302.66;4989820;28;20085;-53
2021/04/26 07:16:45;;;;;;;10.98;7.07;;;;;;;9.40;52.84;96304.66;4985547;28;20066;-56
2021/04/26 07:19:13;;;;;;;10.68;5.90;;;;;;;9.80;52.55;96303.59;4986342;28;20086;-56
2021/04/26 07:21:41;;;;;;;10.35;5.80;;;;;;;9.84;52.20;96299.69;4988640;28;20086;-55
2021/04/26 07:24:09;;;;;;;10.82;6.47;;;;;;;10.38;51.04;96296.28;4988363;28;20477;-55
2021/04/26 07:26:37;;;;;;;10.57;5.95;;;;;;;10.10;51.99;96298.06;4987074;28;20073;-53
2021/04/26 07:29:05;;;;;;;10.10;5.82;;;;;;;10.37;50.22;96291.19;4986956;28;20574;-53
2021/04/26 07:31:32;;;;;;;10.82;5.85;;;;;;;9.66;51.61;96295.16;4986836;28;20085;-52
2021/04/26 07:34:00;;;;;;;11.20;6.43;;;;;;;9.96;52.17;96298.53;4990100;28;20078;-56
2021/04/26 07:36:29;;;;;;;10.30;6.00;;;;;;;10.29;52.49;96297.19;4989643;28;20097;-55
2021/04/26 07:38:56;;;;;;;9.77;6.00;;;;;;;10.83;50.20;96300.72;4989081;28;20097;-56
2021/04/26 07:41:24;;;;;;;10.38;6.20;;;;;;;10.53;52.07;96311.59;4986776;28;20082;-54
2021/04/26 07:43:52;;;;;;;10.90;5.80;;;;;;;10.52;50.42;96307.31;4987987;28;20073;-57
2021/04/26 07:46:21;;;;;;;12.10;5.93;;;;;;;10.64;51.94;96308.78;4985694;28;20114;-50
2021/04/26 07:48:49;;;;;;;9.63;6.10;;;;;;;10.63;50.68;96309.75;4991529;28;20073;-52
2021/04/26 07:51:16;;;;;;;9.32;6.47;;;;;;;10.82;49.88;96306.97;4985510;28;20062;-49
2021/04/26 07:53:44;;;;;;;10.20;6.82;;;;;;;10.70;49.67;96308.16;4988806;28;20093;-51
2021/04/26 07:56:11;;;;;;;7.95;5.93;;;;;;;10.67;51.31;96304.03;4988610;28;20521;-53
2021/04/26 07:58:39;;;;;;;7.85;5.53;;;;;;;10.66;49.95;96306.81;4987407;28;20077;-52
2021/04/26 08:01:06;;;;;;;7.78;5.97;;;;;;;10.63;51.05;96302.69;4986971;28;20088;-57
2021/04/26 08:03:35;;;;;;;7.85;5.53;;;;;;;10.82;52.36;96306.97;4988734;28;20540;-51
2021/04/26 08:06:04;;;;;;;11.18;5.70;;;;;;;10.58;50.15;96306.72;4987811;28;20081;-57
2021/04/26 08:08:31;;;;;;;8.43;5.97;;;;;;;10.84;49.64;96301.53;4985174;28;20073;-54
2021/04/26 08:10:59;;;;;;;8.77;6.53;;;;;;;10.47;50.99;96310.41;4988091;28;20085;-53
2021/04/26 08:13:28;;;;;;;9.23;5.75;;;;;;;10.91;50.22;96297.34;4985514;28;20433;-52
2021/04/26 08:15:57;;;;;;;8.98;5.72;;;;;;;10.62;49.41;96303.63;4990808;28;20077;-54
2021/04/26 08:18:24;;;;;;;10.75;5.93;;;;;;;11.11;48.62;96298.00;4985286;28;20412;-56
2021/04/26 08:20:53;;;;;;;8.52;5.57;;;;;;;11.07;49.29;96299.28;4987598;28;20050;-51
2021/04/26 08:23:21;;;;;;;8.15;5.97;;;;;;;11.14;48.57;96297.69;4985957;28;20069;-56
2021/04/26 08:25:49;;;;;;;8.18;5.85;;;;;;;11.35;48.73;96298.19;4988222;28;20058;-57
2021/04/26 08:28:19;;;;;;;8.35;6.03;;;;;;;11.75;48.65;96291.56;4985800;28;20078;-56
2021/04/26 08:30:47;;;;;;;;;;;;;;;11.58;47.71;96295.06;4988954;28;20504;-51
2021/04/26 08:33:14;;;;;;;7.57;4.85;;;;;;;11.77;46.86;96281.66;4985751;28;19972;-51
2021/04/26 08:35:42;;;;;;;11.07;6.55;;;;;;;11.49;47.48;96294.16;4987569;28;20065;-50
2021/04/26 08:38:10;;;;;;;9.68;5.65;;;;;;;11.56;46.45;96282.03;4986014;28;20092;-51
2021/04/26 08:40:38;;;;;;;9.20;5.40;;;;;;;12.10;46.32;96282.69;4986646;28;20070;-53
2021/04/26 08:43:24;;;;;;;10.25;5.85;;;;;;;11.85;47.11;96287.03;4985379;28;20081;-56
2021/04/26 08:45:52;;;;;;;10.88;5.97;;;;;;;11.91;45.18;96287.41;4990876;28;20082;-51
2021/04/26 08:48:21;;;;;;;13.07;6.32;;;;;;;11.84;45.67;96276.63;4984987;28;20484;-53
2021/04/26 08:50:48;;;;;;;11.07;6.00;;;;;;;12.13;46.48;96286.81;4981039;28;20058;-55
2021/04/26 08:53:17;;;;;;;8.73;5.90;;;;;;;12.02;45.32;96285.28;4988257;28;20074;-54
2021/04/26 08:55:44;;;;;;;9.55;6.30;;;;;;;12.08;44.86;96282.03;4985477;28;20069;-50
2021/04/26 08:58:12;;;;;;;7.90;6.00;;;;;;;12.41;44.92;96284.78;4986963;28;20089;-50
2021/04/26 09:00:39;;;;;;;10.32;5.65;;;;;;;12.19;44.58;96294.13;4987712;28;20086;-57
2021/04/26 09:03:07;;;;;;;9.57;5.55;;;;;;;12.70;44.61;96283.56;4987045;28;20480;-57
2021/04/26 09:05:37;;;;;;;8.73;5.63;;;;;;;12.59;44.31;96274.94;4978765;28;20545;-51
2021/04/26 09:08:08;;;;;;;7.80;5.68;;;;;;;12.82;44.25;96282.25;4985866;28;20096;-55
2021/04/26 09:10:42;;;;;;;10.50;5.68;;;;;;;12.72;42.57;96273.63;4983497;28;20156;-51
2021/04/26 09:13:23;;;;;;;10.02;5.57;;;;;;;13.04;43.56;96272.84;4979075;28;20092;-54
2021/04/26 09:15:52;;;;;;;8.40;5.60;;;;;;;12.79;43.13;96267.50;4982377;28;20089;-56
2021/04/26 09:18:20;;;;;;;11.98;6.03;;;;;;;12.42;43.00;96275.03;4986565;28;20078;-55
2021/04/26 09:20:47;;;;;;;10.57;5.47;;;;;;;13.31;42.96;96269.06;4984315;28;20092;-53
2021/04/26 09:23:15;;;;;;;9.77;5.60;;;;;;;13.35;43.90;96264.25;4987337;28;20081;-51
2021/04/26 09:25:44;;;;;;;10.50;5.38;;;;;;;12.94;43.59;96264.22;4984259;28;20074;-52
2021/04/26 09:28:13;;;;;;;10.50;5.35;;;;;;;13.56;42.12;96261.09;4986599;28;20519;-54
2021/04/26 09:30:47;;;;;;;8.85;5.72;;;;;;;13.33;41.63;96261.78;4986121;28;20544;-53
2021/04/26 09:33:17;;;;;;;8.88;5.10;;;;;;;13.72;40.57;96253.94;4986196;28;20070;-56
2021/04/26 09:35:45;;;;;;;7.68;5.22;;;;;;;13.63;38.98;96251.50;4984729;28;20073;-55
2021/04/26 09:38:26;;;;;;;7.40;4.60;;;;;;;13.51;39.17;96251.00;4987160;28;20073;-54
2021/04/26 09:41:18;;;;;;;11.95;5.15;;;;;;;13.26;39.87;96247.56;4984977;28;20078;-55
2021/04/26 09:43:47;;;;;;;15.80;5.57;;;;;;;13.83;40.43;96247.44;4982455;28;20065;-54
2021/04/26 09:46:15;;;;;;;8.40;5.60;;;;;;;13.94;41.02;96244.47;4983490;28;20078;-51
2021/04/26 09:48:43;;;;;;;8.55;5.30;;;;;;;14.25;39.16;96247.16;4988200;28;20081;-58
2021/04/26 09:51:17;;;;;;;7.25;4.75;;;;;;;13.89;37.39;96241.47;4975362;28;20070;-57
2021/04/26 09:53:54;;;;;;;6.90;4.85;;;;;;;14.13;37.32;96247.69;4986912;28;20080;-53
2021/04/26 09:56:24;;;;;;;7.47;5.00;;;;;;;14.09;37.08;96241.91;4984275;28;20072;-51
2021/04/26 09:58:54;;;;;;;7.30;5.15;;;;;;;14.62;37.58;96245.66;4985783;28;20069;-49
2021/04/26 10:01:24;;;;;;;7.82;4.72;;;;;;;14.71;37.28;96241.13;4980969;28;20070;-49
2021/04/26 10:03:53;;;;;;;5.80;4.10;;;;;;;14.20;34.65;96235.41;5031245;23;20084;-64
2021/04/26 10:06:24;;;;;;;9.50;4.78;;;;;;;14.04;35.79;96240.75;5021948;28;20073;-64
2021/04/26 10:08:53;;;;;;;;;;;;;;;14.65;37.16;96236.50;5032841;28;20075;-66
2021/04/26 10:11:24;;;;;;;7.28;5.00;;;;;;;14.67;35.53;96232.69;5029782;28;19956;-64
2021/04/26 10:13:51;;;;;;;;;;;;;;;14.19;34.90;96234.56;5029111;28;20069;-64
2021/04/26 10:16:23;;;;;;;6.35;4.65;;;;;;;14.11;36.53;96236.41;5029235;28;19956;-66
2021/04/26 10:18:58;;;;;;;10.82;5.18;;;;;;;14.73;36.08;96236.47;5029240;28;20265;-63
2021/04/26 10:21:32;;;;;;;10.07;4.93;;;;;;;14.49;36.68;96235.59;5028473;28;20559;-63
2021/04/26 10:24:19;;;;;;;8.93;4.63;;;;;;;13.89;35.69;96228.22;5026393;28;20069;-62
2021/04/26 10:26:51;;;;;;;9.05;4.80;;;;;;;14.10;35.18;96224.16;5029430;28;20072;-64
2021/04/26 10:29:24;;;;;;;7.72;4.72;;;;;;;14.45;35.01;96222.84;5025048;28;20065;-64
2021/04/26 10:32:10;;;;;;;8.50;4.65;;;;;;;14.37;34.77;96226.34;5028045;28;20072;-66
2021/04/26 10:35:11;;;;;;;8.38;5.10;;;;;;;15.05;35.66;96218.66;5028345;28;20069;-62
2021/04/26 10:37:40;;;;;;;7.85;5.10;;;;;;;14.57;34.94;96207.38;5027018;28;20034;-64
2021/04/26 10:40:15;;;;;;;7.00;4.20;;;;;;;14.92;35.38;96201.47;5027584;28;20046;-60
2021/04/26 10:42:45;;;;;;;8.93;5.20;;;;;;;15.14;35.00;96206.94;5029683;28;20077;-63
2021/04/26 10:45:25;;;;;;;9.15;4.90;;;;;;;14.89;33.85;96207.16;5029071;28;20546;-63
2021/04/26 10:48:10;;;;;;;6.68;4.80;;;;;;;14.85;34.58;96207.69;5025110;28;20072;-67
2021/04/26 10:50:41;;;;;;;7.55;5.00;;;;;;;14.94;35.29;96203.97;5020404;28;20064;-64
2021/04/26 10:53:11;;;;;;;9.73;5.85;;;;;;;14.30;35.20;96200.72;5026453;28;20073;-65
2021/04/26 10:55:59;;;;;;;8.70;5.07;;;;;;;14.89;35.20;96195.69;5026973;28;20061;-65
2021/04/26 10:58:31;;;;;;;6.85;5.07;;;;;;;14.70;34.88;96195.19;5026900;28;20073;-64
2021/04/26 11:00:59;;;;;;;7.15;5.03;;;;;;;15.10;34.04;96192.38;5029511;28;20088;-64
2021/04/26 11:03:37;;;;;;;8.98;5.00;;;;;;;14.96;34.30;96188.69;5028695;28;20543;-66
2021/04/26 11:06:26;;;;;;;6.75;4.85;;;;;;;14.71;34.11;96178.25;5024766;28;20077;-63
2021/04/26 11:11:57;;;;;;;9.47;4.97;;;;;;;15.37;32.60;96161.75;5027779;28;20057;-62
2021/04/26 11:14:27;;;;;;;11.43;5.03;;;;;;;15.61;33.33;96165.97;5026137;28;20177;-64
2021/04/26 11:16:58;;;;;;;6.53;4.65;;;;;;;14.64;32.58;96157.91;5027688;28;20065;-63
2021/04/26 11:19:26;;;;;;;7.65;5.10;;;;;;;14.91;32.23;96165.31;5026050;28;20072;-65
2021/04/26 11:22:03;;;;;;;8.13;4.82;;;;;;;15.14;32.42;96165.31;5029833;28;20084;-63
2021/04/26 11:25:04;;;;;;;7.05;4.85;;;;;;;15.75;31.87;96151.88;5024438;28;20332;-63
2021/04/26 11:27:34;;;;;;;9.65;4.95;;;;;;;15.23;32.19;96154.59;5028246;28;20334;-65
2021/04/26 11:30:33;;;;;;;7.10;4.50;;;;;;;15.10;31.26;96148.06;5025114;28;20068;-63
2021/04/26 11:33:13;;;;;;;7.90;4.55;;;;;;;14.75;31.08;96149.53;5011382;28;20068;-64
2021/04/26 11:36:20;;;;;;;8.05;5.03;;;;;;;15.26;32.88;96151.56;5017880;28;20073;-64
2021/04/26 11:38:48;;;;;;;10.40;5.43;;;;;;;15.04;31.96;96137.34;5027860;28;20053;-62
2021/04/26 11:41:16;;;;;;;9.68;5.68;;;;;;;15.49;32.71;96138.22;5024736;28;20061;-63
2021/04/26 11:43:51;;;;;;;7.15;4.82;;;;;;;15.83;34.98;96135.84;5026781;28;20065;-63
2021/04/26 11:46:25;;;;;;;7.47;4.88;;;;;;;15.78;35.00;96130.25;5025640;28;20078;-64
2021/04/26 11:49:15;;;;;;;8.90;5.32;;;;;;;15.90;34.96;96125.31;5029743;28;20087;-64